aviador You're here:

KVTI Decoded Metar

VINTON in IA, USA
Report Time2017-06-24 21:55:00
UTC Time2017-06-24 22:20:48
Flight Rules vfr VFR
Wind230° at 14 Gusting to 19 kt
W.Decomp.*RWY 27: 10.6 kt HW 9.2 kt LCW
RWY 16: 5.0 kt HW 13.1 kt RCW
W.Rank230° ranks 28
Current wind is above 230° avg. (7.6)
Visibility9999 m
Phenomena:N/A
Clouds:N/A
Expected CloudBase > 7,600 ft AGL from Temp-Dew spread
CeilingNone
Temp24°C (ISA +11)
Dew Point05°C (29% RH)
AAT17.8°C
QNH1017 hPa
Density Alt2,060 ft
Elevation837 ft
Report Wrong Elevation
Raw Report
KVTI 242155Z AUTO 23014G19KT 10SM CLR 24/05 A3004 RMK AO2=

Extra information for KVTI:More info

Metar Taf Metar & Taf Last 4 Metars F.Rules Stats Wind Profile Meteogram Temp Stats Airport Information Weather charts Add Link Nearby VenuesMetar ALERT Operation Metar Decoded Social comments

AIRNAV info for KVTI